sensor_id;sensor_type;location;lat;lon;timestamp;temperature;humidity
1728;DHT22;861;48.808;9.006;2023-02-15T00:02:26;3.90;99.90
1728;DHT22;861;48.808;9.006;2023-02-15T00:04:52;4.00;99.90
1728;DHT22;861;48.808;9.006;2023-02-15T00:07:19;4.00;99.90
1728;DHT22;861;48.808;9.006;2023-02-15T00:09:47;3.90;99.90
1728;DHT22;861;48.808;9.006;2023-02-15T00:12:15;3.90;99.90
1728;DHT22;861;48.808;9.006;2023-02-15T00:14:42;3.80;99.90
1728;DHT22;861;48.808;9.006;2023-02-15T00:17:08;3.70;99.90
1728;DHT22;861;48.808;9.006;2023-02-15T00:19:34;3.70;99.90
1728;DHT22;861;48.808;9.006;2023-02-15T00:22:00;3.60;99.90
1728;DHT22;861;48.808;9.006;2023-02-15T00:24:27;3.50;99.90
1728;DHT22;861;48.808;9.006;2023-02-15T00:26:53;3.80;99.90
1728;DHT22;861;48.808;9.006;2023-02-15T00:29:20;3.90;99.90
1728;DHT22;861;48.808;9.006;2023-02-15T00:31:47;3.90;99.90
1728;DHT22;861;48.808;9.006;2023-02-15T00:34:25;3.90;99.90
1728;DHT22;861;48.808;9.006;2023-02-15T00:36:53;4.00;99.90
1728;DHT22;861;48.808;9.006;2023-02-15T00:39:20;4.00;99.90
1728;DHT22;861;48.808;9.006;2023-02-15T00:41:47;3.90;99.90
1728;DHT22;861;48.808;9.006;2023-02-15T00:44:14;3.90;99.90
1728;DHT22;861;48.808;9.006;2023-02-15T00:46:41;3.80;99.90
1728;DHT22;861;48.808;9.006;2023-02-15T00:49:08;3.80;99.90
1728;DHT22;861;48.808;9.006;2023-02-15T00:51:35;3.80;99.90
1728;DHT22;861;48.808;9.006;2023-02-15T00:54:01;3.90;99.90
1728;DHT22;861;48.808;9.006;2023-02-15T00:56:28;3.90;99.90
1728;DHT22;861;48.808;9.006;2023-02-15T00:58:55;3.90;99.90
1728;DHT22;861;48.808;9.006;2023-02-15T01:01:21;3.90;99.90
1728;DHT22;861;48.808;9.006;2023-02-15T01:03:49;3.90;99.90
1728;DHT22;861;48.808;9.006;2023-02-15T01:06:17;3.80;99.90
1728;DHT22;861;48.808;9.006;2023-02-15T01:08:46;3.60;99.90
1728;DHT22;861;48.808;9.006;2023-02-15T01:11:19;3.50;99.90
1728;DHT22;861;48.808;9.006;2023-02-15T01:13:51;3.50;99.90
1728;DHT22;861;48.808;9.006;2023-02-15T01:16:25;3.40;99.90
1728;DHT22;861;48.808;9.006;2023-02-15T01:18:54;3.40;99.90
1728;DHT22;861;48.808;9.006;2023-02-15T01:21:24;3.40;99.90
1728;DHT22;861;48.808;9.006;2023-02-15T01:23:52;3.40;99.90
1728;DHT22;861;48.808;9.006;2023-02-15T01:26:19;3.40;99.90
1728;DHT22;861;48.808;9.006;2023-02-15T01:28:46;3.40;99.90
1728;DHT22;861;48.808;9.006;2023-02-15T01:31:16;3.50;99.90
1728;DHT22;861;48.808;9.006;2023-02-15T01:33:47;3.40;99.90
1728;DHT22;861;48.808;9.006;2023-02-15T01:36:14;3.50;99.90
1728;DHT22;861;48.808;9.006;2023-02-15T01:38:42;3.60;99.90
1728;DHT22;861;48.808;9.006;2023-02-15T01:41:09;3.60;99.90
1728;DHT22;861;48.808;9.006;2023-02-15T01:43:56;3.50;99.90
1728;DHT22;861;48.808;9.006;2023-02-15T01:46:40;3.50;99.90
1728;DHT22;861;48.808;9.006;2023-02-15T01:49:22;3.40;99.90
1728;DHT22;861;48.808;9.006;2023-02-15T01:51:52;3.50;99.90
1728;DHT22;861;48.808;9.006;2023-02-15T01:54:32;3.50;99.90
1728;DHT22;861;48.808;9.006;2023-02-15T01:57:15;3.40;99.90
1728;DHT22;861;48.808;9.006;2023-02-15T01:59:54;3.40;99.90
1728;DHT22;861;48.808;9.006;2023-02-15T02:02:28;3.40;99.90
1728;DHT22;861;48.808;9.006;2023-02-15T02:05:00;3.30;99.90
1728;DHT22;861;48.808;9.006;2023-02-15T02:07:41;3.30;99.90
1728;DHT22;861;48.808;9.006;2023-02-15T02:10:17;3.10;99.90
1728;DHT22;861;48.808;9.006;2023-02-15T02:12:54;3.00;99.90
1728;DHT22;861;48.808;9.006;2023-02-15T02:23:15;3.10;99.90
1728;DHT22;861;48.808;9.006;2023-02-15T02:42:43;3.10;99.90
1728;DHT22;861;48.808;9.006;2023-02-15T02:45:34;3.00;99.90
1728;DHT22;861;48.808;9.006;2023-02-15T02:48:17;3.00;99.90
1728;DHT22;861;48.808;9.006;2023-02-15T02:50:50;3.00;99.90
1728;DHT22;861;48.808;9.006;2023-02-15T02:53:16;2.70;99.90
1728;DHT22;861;48.808;9.006;2023-02-15T02:55:56;2.80;99.90
1728;DHT22;861;48.808;9.006;2023-02-15T02:59:01;3.00;99.90
1728;DHT22;861;48.808;9.006;2023-02-15T03:02:21;3.10;99.90
1728;DHT22;861;48.808;9.006;2023-02-15T03:05:09;3.00;99.90
1728;DHT22;861;48.808;9.006;2023-02-15T03:07:50;3.00;99.90
1728;DHT22;861;48.808;9.006;2023-02-15T03:10:25;3.00;99.90
1728;DHT22;861;48.808;9.006;2023-02-15T03:12:53;3.00;99.90
1728;DHT22;861;48.808;9.006;2023-02-15T03:15:32;3.00;99.90
1728;DHT22;861;48.808;9.006;2023-02-15T03:18:38;2.90;99.90
1728;DHT22;861;48.808;9.006;2023-02-15T03:21:49;2.90;99.90
1728;DHT22;861;48.808;9.006;2023-02-15T03:28:10;3.00;99.90
1728;DHT22;861;48.808;9.006;2023-02-15T03:30:49;2.90;99.90
1728;DHT22;861;48.808;9.006;2023-02-15T03:33:25;2.90;99.90
1728;DHT22;861;48.808;9.006;2023-02-15T03:36:01;2.90;99.90
1728;DHT22;861;48.808;9.006;2023-02-15T03:38:55;2.80;99.90
1728;DHT22;861;48.808;9.006;2023-02-15T03:41:46;2.80;99.90
1728;DHT22;861;48.808;9.006;2023-02-15T03:44:30;2.80;99.90
1728;DHT22;861;48.808;9.006;2023-02-15T03:47:17;2.70;99.90
1728;DHT22;861;48.808;9.006;2023-02-15T03:50:17;2.70;99.90
1728;DHT22;861;48.808;9.006;2023-02-15T03:53:15;2.50;99.90
1728;DHT22;861;48.808;9.006;2023-02-15T03:55:52;2.50;99.90
1728;DHT22;861;48.808;9.006;2023-02-15T03:58:21;2.30;99.90
1728;DHT22;861;48.808;9.006;2023-02-15T04:01:40;2.30;99.90
1728;DHT22;861;48.808;9.006;2023-02-15T04:04:45;2.30;99.90
1728;DHT22;861;48.808;9.006;2023-02-15T04:07:13;2.30;99.90
1728;DHT22;861;48.808;9.006;2023-02-15T04:09:39;2.30;99.90
1728;DHT22;861;48.808;9.006;2023-02-15T04:12:24;2.30;99.90
1728;DHT22;861;48.808;9.006;2023-02-15T04:14:50;2.30;99.90
1728;DHT22;861;48.808;9.006;2023-02-15T04:17:37;2.30;99.90
1728;DHT22;861;48.808;9.006;2023-02-15T04:20:04;2.30;99.90
1728;DHT22;861;48.808;9.006;2023-02-15T04:22:50;2.10;99.90
1728;DHT22;861;48.808;9.006;2023-02-15T04:25:35;2.20;99.90
1728;DHT22;861;48.808;9.006;2023-02-15T04:28:01;2.20;99.90
1728;DHT22;861;48.808;9.006;2023-02-15T04:30:27;2.30;99.90
1728;DHT22;861;48.808;9.006;2023-02-15T04:32:54;2.20;99.90
1728;DHT22;861;48.808;9.006;2023-02-15T04:35:22;2.10;99.90
1728;DHT22;861;48.808;9.006;2023-02-15T04:37:48;2.20;99.90
1728;DHT22;861;48.808;9.006;2023-02-15T04:40:16;2.20;99.90
1728;DHT22;861;48.808;9.006;2023-02-15T04:42:42;2.20;99.90
1728;DHT22;861;48.808;9.006;2023-02-15T04:45:09;2.20;99.90
1728;DHT22;861;48.808;9.006;2023-02-15T04:47:35;2.20;99.90
1728;DHT22;861;48.808;9.006;2023-02-15T04:50:01;2.10;99.90
1728;DHT22;861;48.808;9.006;2023-02-15T04:52:28;2.10;99.90
1728;DHT22;861;48.808;9.006;2023-02-15T04:54:54;2.00;99.90
1728;DHT22;861;48.808;9.006;2023-02-15T04:57:20;1.90;99.90
1728;DHT22;861;48.808;9.006;2023-02-15T04:59:46;1.90;99.90
1728;DHT22;861;48.808;9.006;2023-02-15T05:02:13;1.80;99.90
1728;DHT22;861;48.808;9.006;2023-02-15T05:04:39;1.70;99.90
1728;DHT22;861;48.808;9.006;2023-02-15T05:07:05;1.70;99.90
1728;DHT22;861;48.808;9.006;2023-02-15T05:09:31;1.80;99.90
1728;DHT22;861;48.808;9.006;2023-02-15T05:11:57;1.70;99.90
1728;DHT22;861;48.808;9.006;2023-02-15T05:14:23;1.50;99.90
1728;DHT22;861;48.808;9.006;2023-02-15T05:16:50;1.30;99.90
1728;DHT22;861;48.808;9.006;2023-02-15T05:19:16;1.30;99.90
1728;DHT22;861;48.808;9.006;2023-02-15T05:21:42;1.30;99.90
1728;DHT22;861;48.808;9.006;2023-02-15T05:24:08;1.40;99.90
1728;DHT22;861;48.808;9.006;2023-02-15T05:26:53;1.60;99.90
1728;DHT22;861;48.808;9.006;2023-02-15T05:29:38;1.70;99.90
1728;DHT22;861;48.808;9.006;2023-02-15T05:32:04;1.60;99.90
1728;DHT22;861;48.808;9.006;2023-02-15T05:34:31;1.60;99.90
1728;DHT22;861;48.808;9.006;2023-02-15T05:36:57;1.80;99.90
1728;DHT22;861;48.808;9.006;2023-02-15T05:39:23;1.80;99.90
1728;DHT22;861;48.808;9.006;2023-02-15T05:41:49;1.80;99.90
1728;DHT22;861;48.808;9.006;2023-02-15T05:44:15;1.80;99.90
1728;DHT22;861;48.808;9.006;2023-02-15T05:46:41;1.80;99.90
1728;DHT22;861;48.808;9.006;2023-02-15T05:49:08;1.80;99.90
1728;DHT22;861;48.808;9.006;2023-02-15T05:51:34;1.60;99.90
1728;DHT22;861;48.808;9.006;2023-02-15T05:54:00;1.60;99.90
1728;DHT22;861;48.808;9.006;2023-02-15T05:56:26;1.60;99.90
1728;DHT22;861;48.808;9.006;2023-02-15T05:58:53;1.40;99.90
1728;DHT22;861;48.808;9.006;2023-02-15T06:01:20;1.40;99.90
1728;DHT22;861;48.808;9.006;2023-02-15T06:03:49;1.60;99.90
1728;DHT22;861;48.808;9.006;2023-02-15T06:06:16;1.60;99.90
1728;DHT22;861;48.808;9.006;2023-02-15T06:08:42;1.70;99.90
1728;DHT22;861;48.808;9.006;2023-02-15T06:11:09;1.60;99.90
1728;DHT22;861;48.808;9.006;2023-02-15T06:13:36;1.50;99.90
1728;DHT22;861;48.808;9.006;2023-02-15T06:16:02;1.60;99.90
1728;DHT22;861;48.808;9.006;2023-02-15T06:18:29;1.60;99.90
1728;DHT22;861;48.808;9.006;2023-02-15T06:20:55;1.60;99.90
1728;DHT22;861;48.808;9.006;2023-02-15T06:23:21;1.70;99.90
1728;DHT22;861;48.808;9.006;2023-02-15T06:25:47;1.80;99.90
1728;DHT22;861;48.808;9.006;2023-02-15T06:28:14;1.90;99.90
1728;DHT22;861;48.808;9.006;2023-02-15T06:30:40;1.80;99.90
1728;DHT22;861;48.808;9.006;2023-02-15T06:33:06;1.80;99.90
1728;DHT22;861;48.808;9.006;2023-02-15T06:35:32;1.70;99.90
1728;DHT22;861;48.808;9.006;2023-02-15T06:37:58;1.50;99.90
1728;DHT22;861;48.808;9.006;2023-02-15T06:40:25;1.40;99.90
1728;DHT22;861;48.808;9.006;2023-02-15T06:42:51;1.40;99.90
1728;DHT22;861;48.808;9.006;2023-02-15T06:45:17;1.40;99.90
1728;DHT22;861;48.808;9.006;2023-02-15T06:47:43;1.50;99.90
1728;DHT22;861;48.808;9.006;2023-02-15T06:50:10;1.50;99.90
1728;DHT22;861;48.808;9.006;2023-02-15T06:52:36;1.50;99.90
1728;DHT22;861;48.808;9.006;2023-02-15T06:55:04;1.60;99.90
1728;DHT22;861;48.808;9.006;2023-02-15T06:57:31;1.60;99.90
1728;DHT22;861;48.808;9.006;2023-02-15T06:59:59;1.70;99.90
1728;DHT22;861;48.808;9.006;2023-02-15T07:02:25;1.70;99.90
1728;DHT22;861;48.808;9.006;2023-02-15T07:04:51;1.60;99.90
1728;DHT22;861;48.808;9.006;2023-02-15T07:07:18;1.50;99.90
1728;DHT22;861;48.808;9.006;2023-02-15T07:09:44;1.50;99.90
1728;DHT22;861;48.808;9.006;2023-02-15T07:12:10;1.50;99.90
1728;DHT22;861;48.808;9.006;2023-02-15T07:14:54;1.60;99.90
1728;DHT22;861;48.808;9.006;2023-02-15T07:17:20;1.60;99.90
1728;DHT22;861;48.808;9.006;2023-02-15T07:19:47;1.50;99.90
1728;DHT22;861;48.808;9.006;2023-02-15T07:22:13;1.50;99.90
1728;DHT22;861;48.808;9.006;2023-02-15T07:24:40;1.60;99.90
1728;DHT22;861;48.808;9.006;2023-02-15T07:27:07;1.60;99.90
1728;DHT22;861;48.808;9.006;2023-02-15T07:29:33;1.70;99.90
1728;DHT22;861;48.808;9.006;2023-02-15T07:32:00;1.60;99.90
1728;DHT22;861;48.808;9.006;2023-02-15T07:34:26;1.50;99.90
1728;DHT22;861;48.808;9.006;2023-02-15T07:36:52;1.60;99.90
1728;DHT22;861;48.808;9.006;2023-02-15T07:39:19;1.70;99.90
1728;DHT22;861;48.808;9.006;2023-02-15T07:41:46;1.70;99.90
1728;DHT22;861;48.808;9.006;2023-02-15T07:44:14;1.80;99.90
1728;DHT22;861;48.808;9.006;2023-02-15T07:46:41;1.70;99.90
1728;DHT22;861;48.808;9.006;2023-02-15T07:49:08;1.80;99.90
1728;DHT22;861;48.808;9.006;2023-02-15T07:51:34;1.90;99.90
1728;DHT22;861;48.808;9.006;2023-02-15T07:54:00;2.00;99.90
1728;DHT22;861;48.808;9.006;2023-02-15T07:56:26;1.90;99.90
1728;DHT22;861;48.808;9.006;2023-02-15T07:58:52;1.90;99.90
1728;DHT22;861;48.808;9.006;2023-02-15T08:01:27;1.90;99.90
1728;DHT22;861;48.808;9.006;2023-02-15T08:04:01;2.00;99.90
1728;DHT22;861;48.808;9.006;2023-02-15T08:06:34;2.10;99.90
1728;DHT22;861;48.808;9.006;2023-02-15T08:09:06;2.20;99.90
1728;DHT22;861;48.808;9.006;2023-02-15T08:11:37;2.30;99.90
1728;DHT22;861;48.808;9.006;2023-02-15T08:14:20;2.40;99.90
1728;DHT22;861;48.808;9.006;2023-02-15T08:16:55;2.50;99.90
1728;DHT22;861;48.808;9.006;2023-02-15T08:19:32;2.60;99.90
1728;DHT22;861;48.808;9.006;2023-02-15T08:22:04;2.60;99.90
1728;DHT22;861;48.808;9.006;2023-02-15T08:24:35;2.80;99.90
1728;DHT22;861;48.808;9.006;2023-02-15T08:27:08;2.90;99.90
1728;DHT22;861;48.808;9.006;2023-02-15T08:32:09;2.80;99.90
1728;DHT22;861;48.808;9.006;2023-02-15T08:34:41;2.70;99.90
1728;DHT22;861;48.808;9.006;2023-02-15T08:37:08;2.80;99.90
1728;DHT22;861;48.808;9.006;2023-02-15T08:39:35;2.60;99.90
1728;DHT22;861;48.808;9.006;2023-02-15T08:42:01;2.80;99.90
1728;DHT22;861;48.808;9.006;2023-02-15T08:44:28;2.90;99.90
1728;DHT22;861;48.808;9.006;2023-02-15T08:46:55;2.90;99.90
1728;DHT22;861;48.808;9.006;2023-02-15T08:49:24;3.00;99.90
1728;DHT22;861;48.808;9.006;2023-02-15T08:51:50;3.00;99.90
1728;DHT22;861;48.808;9.006;2023-02-15T08:54:20;2.90;99.90
1728;DHT22;861;48.808;9.006;2023-02-15T08:56:47;3.10;99.90
1728;DHT22;861;48.808;9.006;2023-02-15T08:59:20;3.10;99.90
1728;DHT22;861;48.808;9.006;2023-02-15T09:01:51;3.10;99.90
1728;DHT22;861;48.808;9.006;2023-02-15T09:04:20;3.20;99.90
1728;DHT22;861;48.808;9.006;2023-02-15T09:06:49;3.40;99.90
1728;DHT22;861;48.808;9.006;2023-02-15T09:09:18;3.70;99.90
1728;DHT22;861;48.808;9.006;2023-02-15T09:11:49;3.80;99.90
1728;DHT22;861;48.808;9.006;2023-02-15T09:14:20;3.90;99.90
1728;DHT22;861;48.808;9.006;2023-02-15T09:16:48;4.00;99.90
1728;DHT22;861;48.808;9.006;2023-02-15T09:19:18;4.20;99.90
1728;DHT22;861;48.808;9.006;2023-02-15T09:21:47;4.30;99.90
1728;DHT22;861;48.808;9.006;2023-02-15T09:24:16;4.40;99.90
1728;DHT22;861;48.808;9.006;2023-02-15T09:26:47;4.30;99.90
1728;DHT22;861;48.808;9.006;2023-02-15T09:29:16;4.40;99.90
1728;DHT22;861;48.808;9.006;2023-02-15T09:31:48;4.50;99.90
1728;DHT22;861;48.808;9.006;2023-02-15T09:34:20;4.50;99.90
1728;DHT22;861;48.808;9.006;2023-02-15T09:36:49;4.70;99.90
1728;DHT22;861;48.808;9.006;2023-02-15T09:39:25;4.90;99.90
1728;DHT22;861;48.808;9.006;2023-02-15T09:46:19;5.30;99.90
1728;DHT22;861;48.808;9.006;2023-02-15T09:49:24;5.40;99.90
1728;DHT22;861;48.808;9.006;2023-02-15T10:02:42;5.70;99.90
1728;DHT22;861;48.808;9.006;2023-02-15T10:05:53;5.90;99.90
1728;DHT22;861;48.808;9.006;2023-02-15T10:27:06;6.90;99.90
1728;DHT22;861;48.808;9.006;2023-02-15T10:30:02;7.00;99.90
1728;DHT22;861;48.808;9.006;2023-02-15T10:33:00;7.10;99.90
1728;DHT22;861;48.808;9.006;2023-02-15T10:36:02;7.30;99.90
1728;DHT22;861;48.808;9.006;2023-02-15T10:39:44;7.50;99.90
1728;DHT22;861;48.808;9.006;2023-02-15T10:50:01;8.30;99.90
1728;DHT22;861;48.808;9.006;2023-02-15T10:56:25;8.50;99.90
1728;DHT22;861;48.808;9.006;2023-02-15T11:06:21;8.80;99.90
1728;DHT22;861;48.808;9.006;2023-02-15T11:08:59;8.70;99.90
1728;DHT22;861;48.808;9.006;2023-02-15T11:11:37;8.90;99.90
1728;DHT22;861;48.808;9.006;2023-02-15T11:14:46;9.20;99.90
1728;DHT22;861;48.808;9.006;2023-02-15T11:17:56;9.40;99.90
1728;DHT22;861;48.808;9.006;2023-02-15T11:21:24;9.50;99.90
1728;DHT22;861;48.808;9.006;2023-02-15T11:23:45;9.60;99.90
1728;DHT22;861;48.808;9.006;2023-02-15T11:26:34;9.80;99.90
1728;DHT22;861;48.808;9.006;2023-02-15T11:29:50;10.10;99.90
1728;DHT22;861;48.808;9.006;2023-02-15T11:32:47;10.10;99.90
1728;DHT22;861;48.808;9.006;2023-02-15T11:36:00;10.20;99.90
1728;DHT22;861;48.808;9.006;2023-02-15T11:38:36;10.10;99.90
1728;DHT22;861;48.808;9.006;2023-02-15T11:41:22;10.30;99.90
1728;DHT22;861;48.808;9.006;2023-02-15T11:44:15;10.40;99.90
1728;DHT22;861;48.808;9.006;2023-02-15T11:46:46;10.50;99.90
1728;DHT22;861;48.808;9.006;2023-02-15T11:49:34;10.70;99.90
1728;DHT22;861;48.808;9.006;2023-02-15T14:56:17;15.70;99.90
1728;DHT22;861;48.808;9.006;2023-02-15T15:01:32;15.60;99.90
1728;DHT22;861;48.808;9.006;2023-02-15T15:04:13;15.60;99.90
1728;DHT22;861;48.808;9.006;2023-02-15T15:10:23;15.80;99.90
1728;DHT22;861;48.808;9.006;2023-02-15T15:19:04;15.90;99.90
1728;DHT22;861;48.808;9.006;2023-02-15T15:21:52;16.00;99.90
1728;DHT22;861;48.808;9.006;2023-02-15T15:27:53;16.10;99.90
1728;DHT22;861;48.808;9.006;2023-02-15T15:35:36;16.10;99.90
1728;DHT22;861;48.808;9.006;2023-02-15T15:43:10;16.00;99.90
1728;DHT22;861;48.808;9.006;2023-02-15T15:49:58;15.60;99.90
1728;DHT22;861;48.808;9.006;2023-02-15T15:52:28;15.30;99.90
1728;DHT22;861;48.808;9.006;2023-02-15T15:55:13;15.10;99.90
1728;DHT22;861;48.808;9.006;2023-02-15T15:57:49;15.00;99.90
1728;DHT22;861;48.808;9.006;2023-02-15T16:03:26;14.80;99.90
1728;DHT22;861;48.808;9.006;2023-02-15T16:05:55;14.80;99.90
1728;DHT22;861;48.808;9.006;2023-02-15T16:08:32;14.60;99.90
1728;DHT22;861;48.808;9.006;2023-02-15T16:11:25;14.50;99.90
1728;DHT22;861;48.808;9.006;2023-02-15T16:13:56;14.50;99.90
1728;DHT22;861;48.808;9.006;2023-02-15T16:16:29;14.30;99.90
1728;DHT22;861;48.808;9.006;2023-02-15T16:18:59;14.10;99.90
1728;DHT22;861;48.808;9.006;2023-02-15T16:21:34;13.80;99.90
1728;DHT22;861;48.808;9.006;2023-02-15T16:24:37;13.80;99.90
1728;DHT22;861;48.808;9.006;2023-02-15T16:27:39;13.50;99.90
1728;DHT22;861;48.808;9.006;2023-02-15T16:30:35;13.20;99.90
1728;DHT22;861;48.808;9.006;2023-02-15T16:36:00;12.80;99.90
1728;DHT22;861;48.808;9.006;2023-02-15T16:41:29;12.30;99.90
1728;DHT22;861;48.808;9.006;2023-02-15T16:44:07;12.10;99.90
1728;DHT22;861;48.808;9.006;2023-02-15T16:46:48;11.90;99.90
1728;DHT22;861;48.808;9.006;2023-02-15T16:49:26;11.50;99.90
1728;DHT22;861;48.808;9.006;2023-02-15T16:52:05;11.50;99.90
1728;DHT22;861;48.808;9.006;2023-02-15T16:54:35;11.50;99.90
1728;DHT22;861;48.808;9.006;2023-02-15T16:57:02;11.50;99.90
1728;DHT22;861;48.808;9.006;2023-02-15T16:59:41;11.40;99.90
1728;DHT22;861;48.808;9.006;2023-02-15T17:02:27;11.30;99.90
1728;DHT22;861;48.808;9.006;2023-02-15T17:16:59;11.00;99.90
1728;DHT22;861;48.808;9.006;2023-02-15T17:19:49;11.00;99.90
1728;DHT22;861;48.808;9.006;2023-02-15T17:22:25;10.90;99.90
1728;DHT22;861;48.808;9.006;2023-02-15T17:25:02;10.70;99.90
1728;DHT22;861;48.808;9.006;2023-02-15T17:27:32;10.70;99.90
1728;DHT22;861;48.808;9.006;2023-02-15T17:30:05;10.60;99.90
1728;DHT22;861;48.808;9.006;2023-02-15T17:32:57;10.50;99.90
1728;DHT22;861;48.808;9.006;2023-02-15T17:35:32;10.30;99.90
1728;DHT22;861;48.808;9.006;2023-02-15T17:38:20;10.30;99.90
1728;DHT22;861;48.808;9.006;2023-02-15T17:40:47;10.20;99.90
1728;DHT22;861;48.808;9.006;2023-02-15T17:43:13;10.10;99.90
1728;DHT22;861;48.808;9.006;2023-02-15T17:45:49;10.00;99.90
1728;DHT22;861;48.808;9.006;2023-02-15T17:48:48;9.90;99.90
1728;DHT22;861;48.808;9.006;2023-02-15T17:51:20;9.80;99.90
1728;DHT22;861;48.808;9.006;2023-02-15T17:53:49;9.60;99.90
1728;DHT22;861;48.808;9.006;2023-02-15T17:56:36;9.50;99.90
1728;DHT22;861;48.808;9.006;2023-02-15T17:59:04;9.40;99.90
1728;DHT22;861;48.808;9.006;2023-02-15T18:01:46;9.20;99.90
1728;DHT22;861;48.808;9.006;2023-02-15T18:04:36;9.20;99.90
1728;DHT22;861;48.808;9.006;2023-02-15T18:07:21;9.10;99.90
1728;DHT22;861;48.808;9.006;2023-02-15T18:10:16;9.10;99.90
1728;DHT22;861;48.808;9.006;2023-02-15T18:13:03;9.10;99.90
1728;DHT22;861;48.808;9.006;2023-02-15T18:15:29;9.00;99.90
1728;DHT22;861;48.808;9.006;2023-02-15T18:17:56;9.00;99.90
1728;DHT22;861;48.808;9.006;2023-02-15T18:20:35;9.10;99.90
1728;DHT22;861;48.808;9.006;2023-02-15T18:23:02;9.00;99.90
1728;DHT22;861;48.808;9.006;2023-02-15T18:25:28;8.90;99.90
1728;DHT22;861;48.808;9.006;2023-02-15T18:27:55;8.90;99.90
1728;DHT22;861;48.808;9.006;2023-02-15T18:30:23;8.80;99.90
1728;DHT22;861;48.808;9.006;2023-02-15T18:32:56;8.70;99.90
1728;DHT22;861;48.808;9.006;2023-02-15T18:35:30;8.60;99.90
1728;DHT22;861;48.808;9.006;2023-02-15T18:38:00;8.40;99.90
1728;DHT22;861;48.808;9.006;2023-02-15T18:40:28;8.30;99.90
1728;DHT22;861;48.808;9.006;2023-02-15T18:42:54;8.30;99.90
1728;DHT22;861;48.808;9.006;2023-02-15T18:45:28;8.20;99.90
1728;DHT22;861;48.808;9.006;2023-02-15T18:47:57;8.00;99.90
1728;DHT22;861;48.808;9.006;2023-02-15T18:50:31;7.90;99.90
1728;DHT22;861;48.808;9.006;2023-02-15T18:53:04;7.90;99.90
1728;DHT22;861;48.808;9.006;2023-02-15T18:55:38;7.70;99.90
1728;DHT22;861;48.808;9.006;2023-02-15T18:58:04;7.70;99.90
1728;DHT22;861;48.808;9.006;2023-02-15T19:00:34;7.90;99.90
1728;DHT22;861;48.808;9.006;2023-02-15T19:03:02;8.10;99.90
1728;DHT22;861;48.808;9.006;2023-02-15T19:05:32;8.10;99.90
1728;DHT22;861;48.808;9.006;2023-02-15T19:08:01;7.90;99.90
1728;DHT22;861;48.808;9.006;2023-02-15T19:10:32;7.80;99.90
1728;DHT22;861;48.808;9.006;2023-02-15T19:12:58;7.70;99.90
1728;DHT22;861;48.808;9.006;2023-02-15T19:15:29;7.50;99.90
1728;DHT22;861;48.808;9.006;2023-02-15T19:17:55;7.20;99.90
1728;DHT22;861;48.808;9.006;2023-02-15T19:20:41;7.20;99.90
1728;DHT22;861;48.808;9.006;2023-02-15T19:23:18;6.90;99.90
1728;DHT22;861;48.808;9.006;2023-02-15T19:25:51;7.20;99.90
1728;DHT22;861;48.808;9.006;2023-02-15T19:28:32;7.40;99.90
1728;DHT22;861;48.808;9.006;2023-02-15T19:30:59;7.40;99.90
1728;DHT22;861;48.808;9.006;2023-02-15T19:33:25;7.60;99.90
1728;DHT22;861;48.808;9.006;2023-02-15T19:35:55;7.50;99.90
1728;DHT22;861;48.808;9.006;2023-02-15T19:38:30;7.50;99.90
1728;DHT22;861;48.808;9.006;2023-02-15T19:41:06;7.30;99.90
1728;DHT22;861;48.808;9.006;2023-02-15T19:43:39;7.20;99.90
1728;DHT22;861;48.808;9.006;2023-02-15T19:46:05;7.30;99.90
1728;DHT22;861;48.808;9.006;2023-02-15T19:48:31;7.40;99.90
1728;DHT22;861;48.808;9.006;2023-02-15T19:50:57;7.50;99.90
1728;DHT22;861;48.808;9.006;2023-02-15T19:53:27;7.50;99.90
1728;DHT22;861;48.808;9.006;2023-02-15T19:55:54;7.50;99.90
1728;DHT22;861;48.808;9.006;2023-02-15T19:58:20;7.40;99.90
1728;DHT22;861;48.808;9.006;2023-02-15T20:00:49;7.40;99.90
1728;DHT22;861;48.808;9.006;2023-02-15T20:03:16;7.40;99.90
1728;DHT22;861;48.808;9.006;2023-02-15T20:05:44;7.30;99.90
1728;DHT22;861;48.808;9.006;2023-02-15T20:08:21;7.20;99.90
1728;DHT22;861;48.808;9.006;2023-02-15T20:10:48;7.00;99.90
1728;DHT22;861;48.808;9.006;2023-02-15T20:13:17;7.00;99.90
1728;DHT22;861;48.808;9.006;2023-02-15T20:15:48;7.00;99.90
1728;DHT22;861;48.808;9.006;2023-02-15T20:18:16;6.90;99.90
1728;DHT22;861;48.808;9.006;2023-02-15T20:20:48;6.80;99.90
1728;DHT22;861;48.808;9.006;2023-02-15T20:23:25;6.70;99.90
1728;DHT22;861;48.808;9.006;2023-02-15T20:25:59;6.60;99.90
1728;DHT22;861;48.808;9.006;2023-02-15T20:28:31;6.60;99.90
1728;DHT22;861;48.808;9.006;2023-02-15T20:30:58;6.60;99.90
1728;DHT22;861;48.808;9.006;2023-02-15T20:33:24;6.50;99.90
1728;DHT22;861;48.808;9.006;2023-02-15T20:35:51;6.40;99.90
1728;DHT22;861;48.808;9.006;2023-02-15T20:38:26;6.30;99.90
1728;DHT22;861;48.808;9.006;2023-02-15T20:40:58;6.40;99.90
1728;DHT22;861;48.808;9.006;2023-02-15T20:43:44;6.30;99.90
1728;DHT22;861;48.808;9.006;2023-02-15T20:46:10;6.00;99.90
1728;DHT22;861;48.808;9.006;2023-02-15T20:48:37;6.00;99.90
1728;DHT22;861;48.808;9.006;2023-02-15T20:51:04;6.10;99.90
1728;DHT22;861;48.808;9.006;2023-02-15T20:53:30;5.90;99.90
1728;DHT22;861;48.808;9.006;2023-02-15T20:55:57;5.90;99.90
1728;DHT22;861;48.808;9.006;2023-02-15T20:58:27;5.90;99.90
1728;DHT22;861;48.808;9.006;2023-02-15T21:00:57;6.00;99.90
1728;DHT22;861;48.808;9.006;2023-02-15T21:03:26;6.10;99.90
1728;DHT22;861;48.808;9.006;2023-02-15T21:05:56;6.20;99.90
1728;DHT22;861;48.808;9.006;2023-02-15T21:08:24;6.30;99.90
1728;DHT22;861;48.808;9.006;2023-02-15T21:10:53;6.30;99.90
1728;DHT22;861;48.808;9.006;2023-02-15T21:13:29;6.40;99.90
1728;DHT22;861;48.808;9.006;2023-02-15T21:16:00;6.40;99.90
1728;DHT22;861;48.808;9.006;2023-02-15T21:18:30;6.20;99.90
1728;DHT22;861;48.808;9.006;2023-02-15T21:21:03;6.00;99.90
1728;DHT22;861;48.808;9.006;2023-02-15T21:23:42;6.00;99.90
1728;DHT22;861;48.808;9.006;2023-02-15T21:26:19;6.10;99.90
1728;DHT22;861;48.808;9.006;2023-02-15T21:28:48;6.30;99.90
1728;DHT22;861;48.808;9.006;2023-02-15T21:31:22;6.00;99.90
1728;DHT22;861;48.808;9.006;2023-02-15T21:33:51;5.80;99.90
1728;DHT22;861;48.808;9.006;2023-02-15T21:36:24;5.80;99.90
1728;DHT22;861;48.808;9.006;2023-02-15T21:38:51;5.70;99.90
1728;DHT22;861;48.808;9.006;2023-02-15T21:41:23;5.60;99.90
1728;DHT22;861;48.808;9.006;2023-02-15T21:44:19;5.60;99.90
1728;DHT22;861;48.808;9.006;2023-02-15T21:47:25;5.50;99.90
1728;DHT22;861;48.808;9.006;2023-02-15T21:50:16;5.30;99.90
1728;DHT22;861;48.808;9.006;2023-02-15T21:53:24;4.60;99.90
1728;DHT22;861;48.808;9.006;2023-02-15T21:56:13;4.70;99.90
1728;DHT22;861;48.808;9.006;2023-02-15T21:58:44;4.70;99.90
1728;DHT22;861;48.808;9.006;2023-02-15T22:01:25;4.50;99.90
1728;DHT22;861;48.808;9.006;2023-02-15T22:03:55;4.50;99.90
1728;DHT22;861;48.808;9.006;2023-02-15T22:06:23;4.60;99.90
1728;DHT22;861;48.808;9.006;2023-02-15T22:08:50;4.50;99.90
1728;DHT22;861;48.808;9.006;2023-02-15T22:11:20;4.30;99.90
1728;DHT22;861;48.808;9.006;2023-02-15T22:13:50;3.70;99.90
1728;DHT22;861;48.808;9.006;2023-02-15T22:16:21;3.20;99.90
1728;DHT22;861;48.808;9.006;2023-02-15T22:18:48;3.00;99.90
1728;DHT22;861;48.808;9.006;2023-02-15T22:21:14;2.90;99.90
1728;DHT22;861;48.808;9.006;2023-02-15T22:23:45;2.70;99.90
1728;DHT22;861;48.808;9.006;2023-02-15T22:26:21;2.60;99.90
1728;DHT22;861;48.808;9.006;2023-02-15T22:28:50;2.80;99.90
1728;DHT22;861;48.808;9.006;2023-02-15T22:31:21;2.80;99.90
1728;DHT22;861;48.808;9.006;2023-02-15T22:33:48;3.00;99.90
1728;DHT22;861;48.808;9.006;2023-02-15T22:36:24;3.20;99.90